createdAt,value
2022-11-27T00:02:47.957Z,22.35
2022-11-27T00:07:49.632Z,22.02
2022-11-27T00:12:51.477Z,20.70
2022-11-27T00:17:53.107Z,24.92
2022-11-27T00:22:54.671Z,23.90
2022-11-27T00:27:56.675Z,22.17
2022-11-27T00:32:58.235Z,23.02
2022-11-27T00:37:59.812Z,22.20
2022-11-27T00:43:01.669Z,22.50
2022-11-27T00:48:03.395Z,22.45
2022-11-27T00:53:04.938Z,22.00
2022-11-27T00:58:06.569Z,23.35
2022-11-27T01:03:08.189Z,23.42
2022-11-27T01:08:09.771Z,23.67
2022-11-27T01:13:11.319Z,23.55
2022-11-27T01:18:12.976Z,24.20
2022-11-27T01:23:14.554Z,22.50
2022-11-27T01:28:17.240Z,23.65
2022-11-27T01:33:19.224Z,24.48
2022-11-27T01:38:20.931Z,24.55
2022-11-27T01:43:44.227Z,24.98
2022-11-27T01:48:47.032Z,24.08
2022-11-27T01:53:49.766Z,25.98
2022-11-27T01:58:52.183Z,26.05
2022-11-27T02:03:58.047Z,26.00
2022-11-27T02:08:59.688Z,26.23
2022-11-27T02:14:15.198Z,26.27
2022-11-27T02:19:44.902Z,26.40
2022-11-27T02:24:56.321Z,26.77
2022-11-27T02:30:00.699Z,28.02
2022-11-27T02:35:28.224Z,27.60
2022-11-27T02:40:45.117Z,28.38
2022-11-27T02:45:49.686Z,27.92
2022-11-27T02:50:52.546Z,27.80
2022-11-27T02:55:56.906Z,29.17
2022-11-27T03:00:59.963Z,29.40
2022-11-27T03:06:10.738Z,27.92
2022-11-27T03:11:14.992Z,27.02
2022-11-27T03:16:25.596Z,28.98
2022-11-27T03:21:36.522Z,28.63
2022-11-27T03:26:39.830Z,28.83
2022-11-27T03:31:41.576Z,28.88
2022-11-27T03:36:43.196Z,28.08
2022-11-27T03:41:53.541Z,28.98
2022-11-27T03:47:25.073Z,28.33
2022-11-27T03:52:41.606Z,27.27
2022-11-27T03:58:00.826Z,27.75
2022-11-27T04:03:03.850Z,27.50
2022-11-27T04:08:05.788Z,26.83
2022-11-27T04:13:07.392Z,27.88
2022-11-27T04:18:09.196Z,27.83
2022-11-27T04:23:10.742Z,28.02
2022-11-27T04:28:12.314Z,28.02
2022-11-27T04:33:13.942Z,27.25
2022-11-27T04:38:15.618Z,27.52
2022-11-27T04:43:17.175Z,26.85
2022-11-27T04:48:18.819Z,24.92
2022-11-27T04:53:20.366Z,26.25
2022-11-27T04:58:21.981Z,24.35
2022-11-27T05:03:23.541Z,24.30
2022-11-27T05:08:26.048Z,24.58
2022-11-27T05:13:27.777Z,23.88
2022-11-27T05:18:29.727Z,23.45
2022-11-27T05:23:31.759Z,24.38
2022-11-27T05:28:33.344Z,26.15
2022-11-27T05:33:34.874Z,25.52
2022-11-27T05:38:36.467Z,23.58
2022-11-27T05:43:38.092Z,25.52
2022-11-27T05:48:40.091Z,24.77
2022-11-27T05:53:41.774Z,24.88
2022-11-27T05:58:45.349Z,25.85
2022-11-27T06:03:47.009Z,23.60
2022-11-27T06:08:48.749Z,23.85
2022-11-27T06:13:50.817Z,23.40
2022-11-27T06:18:53.976Z,24.70
2022-11-27T06:23:56.649Z,26.35
2022-11-27T06:28:59.307Z,24.13
2022-11-27T06:34:01.554Z,22.30
2022-11-27T06:39:05.288Z,23.63
2022-11-27T06:44:06.928Z,23.42
2022-11-27T06:49:09.577Z,23.50
2022-11-27T06:54:11.177Z,23.95
2022-11-27T06:59:15.795Z,25.05
2022-11-27T07:04:17.356Z,23.58
2022-11-27T07:09:18.935Z,20.98
2022-11-27T07:14:20.493Z,18.88
2022-11-27T07:19:22.062Z,18.98
2022-11-27T07:24:23.700Z,18.98
2022-11-27T07:29:25.329Z,18.20
2022-11-27T07:34:27.254Z,17.90
2022-11-27T07:39:54.459Z,18.70
2022-11-27T07:44:50.524Z,18.13
2022-11-27T07:49:52.161Z,17.45
2022-11-27T07:54:53.933Z,16.33
2022-11-27T07:59:55.924Z,16.98
2022-11-27T08:04:57.518Z,16.15
2022-11-27T08:09:59.101Z,17.15
2022-11-27T08:15:00.658Z,17.77
2022-11-27T08:20:02.742Z,16.63
2022-11-27T08:25:04.679Z,17.63
2022-11-27T08:30:06.987Z,17.00
2022-11-27T08:35:09.670Z,17.33
2022-11-27T08:40:11.740Z,17.00
2022-11-27T08:45:13.441Z,16.52
2022-11-27T08:50:14.975Z,17.23
2022-11-27T08:55:16.904Z,15.85
2022-11-27T09:00:22.405Z,15.50
2022-11-27T09:05:27.947Z,15.38
2022-11-27T09:10:29.499Z,16.08
2022-11-27T09:15:31.055Z,15.52
2022-11-27T09:20:32.658Z,18.08
2022-11-27T09:25:34.215Z,17.48
2022-11-27T09:30:37.206Z,16.83
2022-11-27T09:35:39.677Z,17.58
2022-11-27T09:40:52.950Z,16.48
2022-11-27T09:46:01.307Z,15.52
2022-11-27T09:51:20.011Z,16.90
2022-11-27T09:56:22.624Z,16.13
2022-11-27T10:01:37.193Z,15.68
2022-11-27T10:06:59.551Z,16.00
2022-11-27T10:12:06.334Z,15.10
2022-11-27T10:17:22.945Z,15.95
2022-11-27T10:22:49.135Z,16.27
2022-11-27T10:28:17.803Z,18.85
2022-11-27T10:33:42.511Z,13.88
2022-11-27T10:38:46.337Z,13.88
2022-11-27T10:43:51.007Z,12.27
2022-11-27T10:48:52.630Z,12.90
2022-11-27T10:53:54.767Z,13.20
2022-11-27T10:59:03.074Z,13.77
2022-11-27T11:04:24.278Z,13.63
2022-11-27T11:09:32.818Z,13.05
2022-11-27T11:14:34.444Z,13.60
2022-11-27T11:19:38.094Z,12.77
2022-11-27T11:24:44.827Z,12.05
2022-11-27T11:29:46.798Z,11.85
2022-11-27T11:35:00.623Z,13.05
2022-11-27T11:40:20.871Z,10.77
2022-11-27T11:45:23.252Z,11.50
2022-11-27T11:50:46.142Z,14.65
2022-11-27T11:56:09.737Z,11.30
2022-11-27T12:01:43.509Z,11.52
2022-11-27T12:07:00.116Z,10.55
2022-11-27T12:12:17.474Z,10.10
2022-11-27T12:17:48.291Z,10.73
2022-11-27T12:22:52.742Z,11.10
2022-11-27T12:28:46.723Z,12.07
2022-11-27T12:34:16.848Z,11.70
2022-11-27T12:39:31.078Z,12.35
2022-11-27T12:44:50.967Z,12.75
2022-11-27T12:49:57.593Z,12.35
2022-11-27T12:55:14.611Z,13.15
2022-11-27T13:00:25.518Z,12.90
2022-11-27T13:05:32.259Z,12.57
2022-11-27T13:10:54.881Z,14.63
2022-11-27T13:16:01.327Z,15.82
2022-11-27T13:21:09.345Z,15.38
2022-11-27T13:26:26.091Z,15.45
2022-11-27T13:31:33.139Z,15.48
2022-11-27T13:36:41.902Z,15.85
2022-11-27T13:41:43.839Z,16.48
2022-11-27T13:46:49.140Z,15.73
2022-11-27T13:51:50.729Z,17.15
2022-11-27T13:56:52.347Z,16.30
2022-11-27T14:02:05.969Z,16.65
2022-11-27T14:07:11.726Z,16.95
2022-11-27T14:12:31.343Z,17.73
2022-11-27T14:17:40.923Z,16.50
2022-11-27T14:23:11.264Z,15.45
2022-11-27T14:28:26.323Z,16.23
2022-11-27T14:33:59.702Z,17.38
2022-11-27T14:38:57.128Z,18.38
2022-11-27T14:44:04.465Z,18.08
2022-11-27T14:49:06.013Z,17.02
2022-11-27T14:54:13.397Z,17.98
2022-11-27T14:59:17.117Z,20.10
2022-11-27T15:04:39.073Z,19.73
2022-11-27T15:09:49.052Z,21.08
2022-11-27T15:14:59.803Z,22.35
2022-11-27T15:20:04.263Z,22.83
2022-11-27T15:25:08.049Z,19.65
2022-11-27T15:30:17.252Z,19.70
2022-11-27T15:35:28.503Z,18.48
2022-11-27T15:40:36.347Z,17.98
2022-11-27T15:45:39.126Z,17.55
2022-11-27T15:50:40.777Z,17.70
2022-11-27T15:55:42.411Z,18.23
2022-11-27T16:00:44.062Z,17.85
2022-11-27T16:05:45.799Z,18.08
2022-11-27T16:10:47.349Z,18.85
2022-11-27T16:15:48.890Z,19.33
2022-11-27T16:20:50.438Z,20.85
2022-11-27T16:25:52.006Z,19.27
2022-11-27T16:30:58.630Z,20.67
2022-11-27T16:36:07.244Z,23.00
2022-11-27T16:41:11.856Z,24.57
2022-11-27T16:46:19.368Z,22.60
2022-11-27T16:51:26.212Z,24.08
2022-11-27T16:56:29.883Z,24.77
2022-11-27T17:01:36.660Z,24.00
2022-11-27T17:06:39.267Z,23.45
2022-11-27T17:11:48.402Z,24.95
2022-11-27T17:16:50.178Z,22.40
2022-11-27T17:21:51.815Z,23.90
2022-11-27T17:26:55.353Z,23.90
2022-11-27T17:31:56.994Z,22.55
2022-11-27T17:36:58.757Z,24.77
2022-11-27T17:42:00.393Z,23.40
2022-11-27T17:47:02.008Z,22.90
2022-11-27T17:52:06.478Z,23.02
2022-11-27T17:57:08.274Z,22.55
2022-11-27T18:02:11.868Z,22.55
2022-11-27T18:07:13.545Z,23.13
2022-11-27T18:12:15.176Z,23.35
2022-11-27T18:17:18.159Z,23.40
2022-11-27T18:22:19.763Z,22.30
2022-11-27T18:27:21.520Z,24.52
2022-11-27T18:32:23.243Z,23.65
2022-11-27T18:37:25.523Z,24.38
2022-11-27T18:42:27.089Z,25.83
2022-11-27T18:47:28.702Z,25.77
2022-11-27T18:52:30.333Z,25.67
2022-11-27T18:57:31.885Z,26.77
2022-11-27T19:02:33.540Z,29.40
2022-11-27T19:07:35.263Z,27.40
2022-11-27T19:12:36.943Z,27.95
2022-11-27T19:17:38.723Z,28.15
2022-11-27T19:22:40.310Z,28.27
2022-11-27T19:27:41.861Z,27.13
2022-11-27T19:32:43.443Z,27.27
2022-11-27T19:37:44.987Z,27.02
2022-11-27T19:42:46.692Z,27.20
2022-11-27T19:47:48.652Z,27.45
2022-11-27T19:52:50.232Z,28.92
2022-11-27T19:57:51.776Z,29.40
2022-11-27T20:02:53.409Z,28.23
2022-11-27T20:07:55.034Z,29.83
2022-11-27T20:13:01.164Z,30.65
2022-11-27T20:18:02.730Z,32.45
2022-11-27T20:23:04.283Z,32.58
2022-11-27T20:28:05.835Z,37.38
2022-11-27T20:33:07.991Z,41.67
2022-11-27T20:38:09.674Z,72.65
2022-11-27T20:43:11.397Z,62.08
2022-11-27T20:48:12.933Z,45.88
2022-11-27T20:53:14.490Z,36.17
2022-11-27T20:58:16.106Z,33.13
2022-11-27T21:03:17.717Z,31.38
2022-11-27T21:08:19.609Z,31.70
2022-11-27T21:13:21.158Z,31.90
2022-11-27T21:18:22.714Z,31.10
2022-11-27T21:23:24.275Z,30.02
2022-11-27T21:28:25.912Z,29.13
2022-11-27T21:33:27.473Z,30.13
2022-11-27T21:38:29.102Z,29.67
2022-11-27T21:43:31.787Z,28.80
2022-11-27T21:48:34.591Z,29.73
2022-11-27T21:53:36.151Z,30.83
2022-11-27T21:58:38.091Z,29.17
2022-11-27T22:03:42.813Z,29.95
2022-11-27T22:08:56.787Z,29.55
2022-11-27T22:14:04.741Z,32.10
2022-11-27T22:19:06.362Z,31.90
2022-11-27T22:24:12.158Z,31.40
2022-11-27T22:29:18.292Z,29.98
2022-11-27T22:34:19.932Z,56.17
2022-11-27T22:39:21.493Z,46.30
2022-11-27T22:44:23.071Z,35.70
2022-11-27T22:49:24.612Z,31.25
2022-11-27T22:54:26.221Z,29.88
2022-11-27T22:59:33.336Z,30.80
2022-11-27T23:04:37.059Z,31.85
2022-11-27T23:09:38.610Z,31.95
2022-11-27T23:14:40.788Z,32.17
2022-11-27T23:19:42.604Z,30.52
2022-11-27T23:24:44.229Z,30.80
2022-11-27T23:29:45.979Z,29.40
2022-11-27T23:34:47.657Z,30.70
2022-11-27T23:39:49.201Z,30.33
2022-11-27T23:44:50.734Z,29.55
2022-11-27T23:49:52.366Z,29.75
2022-11-27T23:54:53.895Z,28.83
2022-11-27T23:59:55.526Z,29.33
